Terminal Aerodrome Forecast
Issued by NWS

Home | Current Version | Previous Version | Text Only | Print | Product List | Glossary On
Versions: 1 2 3 4 5 6 7 8 9 10 11 12
000
FTUS41 KPHI 221127
TAFPNE
TAF
KPNE 221127Z 2212/2312 VRB02KT P6SM SCT250
     FM221800 16006KT P6SM BKN250
     FM230400 15004KT P6SM BKN010
     FM230800 VRB03KT 3SM BR OVC010
     FM231100 VRB02KT 2SM BR OVC010=

USA.gov is the U.S. government's official web portal to all federal, state and local government web resources and services.